createdAt,value
2019-05-19T00:03:29.773Z,53.10
2019-05-19T00:08:34.501Z,53.10
2019-05-19T00:13:39.345Z,53.10
2019-05-19T00:18:44.225Z,53.10
2019-05-19T00:23:49.073Z,53.00
2019-05-19T00:28:54.029Z,53.00
2019-05-19T00:33:58.951Z,53.10
2019-05-19T00:39:05.475Z,53.20
2019-05-19T00:44:10.381Z,53.10
2019-05-19T00:49:15.327Z,53.10
2019-05-19T00:54:20.222Z,53.20
2019-05-19T00:59:26.708Z,53.20
2019-05-19T01:04:31.615Z,53.20
2019-05-19T01:09:36.458Z,53.20
2019-05-19T01:14:41.407Z,53.20
2019-05-19T01:19:55.703Z,53.20
2019-05-19T01:24:52.753Z,53.20
2019-05-19T01:29:57.540Z,53.20
2019-05-19T01:35:02.443Z,53.20
2019-05-19T01:40:08.528Z,53.20
2019-05-19T01:45:14.924Z,53.20
2019-05-19T01:50:19.640Z,53.20
2019-05-19T01:55:24.532Z,53.20
2019-05-19T02:00:29.446Z,53.20
2019-05-19T02:05:34.334Z,53.20
2019-05-19T02:10:39.599Z,53.10
2019-05-19T02:15:44.507Z,53.20
2019-05-19T02:20:49.423Z,53.00
2019-05-19T02:25:54.204Z,53.10
2019-05-19T02:30:59.565Z,53.10
2019-05-19T02:36:04.583Z,53.10
2019-05-19T02:41:11.912Z,53.20
2019-05-19T02:46:17.021Z,53.10
2019-05-19T02:51:22.529Z,53.10
2019-05-19T02:56:29.223Z,53.10
2019-05-19T03:01:35.609Z,53.10
2019-05-19T03:06:40.721Z,53.00
2019-05-19T03:11:45.563Z,53.00
2019-05-19T03:16:50.255Z,53.00
2019-05-19T03:21:55.255Z,53.00
2019-05-19T03:27:00.149Z,53.30
2019-05-19T03:32:21.740Z,53.10
2019-05-19T03:37:26.680Z,53.00
2019-05-19T03:42:31.398Z,53.10
2019-05-19T03:47:36.213Z,53.10
2019-05-19T03:52:41.047Z,53.00
2019-05-19T03:57:45.947Z,53.10
2019-05-19T04:02:50.702Z,53.20
2019-05-19T04:07:56.904Z,53.40
2019-05-19T04:13:01.622Z,53.20
2019-05-19T04:18:06.740Z,53.20
2019-05-19T04:23:11.464Z,53.30
2019-05-19T04:28:16.240Z,53.30
2019-05-19T04:33:21.001Z,53.30
2019-05-19T04:38:25.760Z,53.50
2019-05-19T04:43:30.866Z,53.40
2019-05-19T04:48:35.529Z,53.60
2019-05-19T04:53:40.275Z,53.60
2019-05-19T04:58:45.164Z,53.80
2019-05-19T05:03:49.984Z,53.90
2019-05-19T05:08:55.172Z,54.00
2019-05-19T05:13:59.817Z,54.00
2019-05-19T05:19:04.504Z,54.50
2019-05-19T05:24:09.477Z,54.60
2019-05-19T05:29:14.800Z,54.80
2019-05-19T05:34:19.620Z,54.90
2019-05-19T05:39:24.539Z,55.20
2019-05-19T05:44:29.308Z,55.30
2019-05-19T05:49:34.204Z,55.70
2019-05-19T05:54:39.404Z,55.80
2019-05-19T05:59:44.174Z,56.00
2019-05-19T06:04:49.364Z,56.20
2019-05-19T06:09:54.209Z,56.40
2019-05-19T06:14:59.325Z,56.50
2019-05-19T06:20:06.956Z,56.50
2019-05-19T06:25:12.124Z,56.50
2019-05-19T06:30:18.204Z,56.70
2019-05-19T06:35:23.066Z,56.80
2019-05-19T06:40:27.679Z,56.90
2019-05-19T06:45:32.618Z,57.10
2019-05-19T06:50:40.608Z,57.10
2019-05-19T06:55:44.474Z,57.10
2019-05-19T07:00:50.005Z,57.30
2019-05-19T07:05:54.975Z,57.20
2019-05-19T07:10:59.865Z,57.40
2019-05-19T07:16:04.772Z,57.10
2019-05-19T07:21:09.751Z,57.40
2019-05-19T07:26:15.167Z,57.60
2019-05-19T07:31:19.997Z,58.10
2019-05-19T07:36:24.817Z,57.40
2019-05-19T07:41:29.682Z,58.40
2019-05-19T07:46:34.856Z,57.50
2019-05-19T07:51:39.700Z,57.60
2019-05-19T07:56:44.602Z,57.30
2019-05-19T08:01:49.783Z,57.80
2019-05-19T08:06:54.978Z,57.70
2019-05-19T08:11:59.605Z,57.60
2019-05-19T08:17:04.867Z,57.60
2019-05-19T08:22:09.988Z,57.60
2019-05-19T08:27:15.045Z,57.60
2019-05-19T08:32:20.027Z,57.50
2019-05-19T08:37:25.037Z,57.40
2019-05-19T08:42:30.031Z,57.50
2019-05-19T08:47:35.368Z,57.20
2019-05-19T08:52:40.417Z,57.50
2019-05-19T08:57:45.269Z,57.20
2019-05-19T09:02:50.254Z,57.10
2019-05-19T09:07:54.843Z,57.20
2019-05-19T09:12:59.791Z,57.10
2019-05-19T09:18:04.766Z,57.10
2019-05-19T09:23:09.677Z,57.30
2019-05-19T09:28:15.290Z,57.50
2019-05-19T09:33:20.297Z,57.60
2019-05-19T09:38:25.119Z,57.90
2019-05-19T09:43:29.995Z,57.80
2019-05-19T09:48:35.086Z,57.80
2019-05-19T09:53:41.569Z,57.80
2019-05-19T09:58:46.463Z,57.80
2019-05-19T10:03:51.682Z,57.70
2019-05-19T10:09:01.603Z,57.80
2019-05-19T10:14:07.992Z,57.70
2019-05-19T10:19:13.085Z,57.50
2019-05-19T10:24:18.196Z,57.50
2019-05-19T10:29:23.237Z,57.20
2019-05-19T10:34:28.354Z,57.40
2019-05-19T10:39:34.261Z,58.00
2019-05-19T10:44:39.223Z,57.30
2019-05-19T10:49:44.173Z,57.20
2019-05-19T10:54:48.970Z,57.10
2019-05-19T10:59:53.933Z,57.50
2019-05-19T11:04:58.862Z,58.40
2019-05-19T11:10:04.714Z,59.00
2019-05-19T11:15:10.531Z,59.10
2019-05-19T11:20:15.319Z,59.10
2019-05-19T11:25:32.972Z,59.10
2019-05-19T11:30:26.802Z,58.90
2019-05-19T11:35:31.417Z,58.70
2019-05-19T11:40:36.319Z,58.60
2019-05-19T11:45:41.137Z,58.50
2019-05-19T11:50:45.954Z,56.60
2019-05-19T11:56:04.331Z,55.70
2019-05-19T12:00:57.369Z,55.30
2019-05-19T12:06:02.157Z,55.40
2019-05-19T12:11:07.399Z,55.40
2019-05-19T12:16:12.389Z,55.40
2019-05-19T12:21:17.146Z,55.40
2019-05-19T12:26:23.961Z,55.70
2019-05-19T12:31:28.837Z,55.10
2019-05-19T12:36:33.589Z,56.00
2019-05-19T12:41:38.372Z,56.40
2019-05-19T12:46:43.361Z,56.70
2019-05-19T12:51:48.341Z,56.60
2019-05-19T12:56:54.508Z,56.70
2019-05-19T13:01:59.470Z,56.80
2019-05-19T13:07:04.416Z,56.80
2019-05-19T13:12:09.318Z,56.70
2019-05-19T13:17:15.039Z,56.70
2019-05-19T13:22:20.453Z,56.70
2019-05-19T13:27:25.413Z,56.60
2019-05-19T13:32:30.230Z,56.50
2019-05-19T13:37:35.403Z,56.60
2019-05-19T13:42:40.630Z,56.60
2019-05-19T13:47:45.455Z,56.70
2019-05-19T13:52:51.764Z,56.80
2019-05-19T13:57:56.750Z,57.20
2019-05-19T14:03:01.824Z,57.70
2019-05-19T14:08:06.799Z,58.10
2019-05-19T14:13:11.714Z,58.10
2019-05-19T14:18:16.358Z,58.00
2019-05-19T14:23:21.067Z,58.30
2019-05-19T14:28:26.117Z,58.00
2019-05-19T14:33:30.877Z,58.00
2019-05-19T14:38:35.767Z,58.30
2019-05-19T14:43:40.631Z,58.20
2019-05-19T14:48:45.276Z,57.90
2019-05-19T14:53:50.170Z,57.50
2019-05-19T14:58:55.080Z,58.30
2019-05-19T15:04:00.015Z,57.30
2019-05-19T15:09:06.298Z,57.00
2019-05-19T15:14:11.239Z,56.80
2019-05-19T15:19:16.199Z,56.40
2019-05-19T15:24:21.432Z,56.10
2019-05-19T15:29:26.013Z,55.80
2019-05-19T15:34:30.868Z,56.00
2019-05-19T15:39:35.514Z,56.10
2019-05-19T15:44:40.700Z,57.10
2019-05-19T15:49:45.925Z,56.80
2019-05-19T15:54:50.943Z,56.90
2019-05-19T15:59:55.877Z,57.10
2019-05-19T16:05:01.059Z,57.40
2019-05-19T16:10:09.471Z,57.70
2019-05-19T16:15:16.573Z,58.10
2019-05-19T16:20:21.347Z,58.50
2019-05-19T16:25:26.417Z,59.40
2019-05-19T16:30:31.519Z,59.40
2019-05-19T16:35:36.604Z,58.30
2019-05-19T16:40:41.616Z,58.30
2019-05-19T16:45:47.959Z,58.20
2019-05-19T16:50:53.341Z,58.30
2019-05-19T16:55:58.327Z,58.30
2019-05-19T17:01:03.478Z,58.50
2019-05-19T17:06:08.521Z,58.30
2019-05-19T17:11:18.377Z,58.40
2019-05-19T17:16:20.013Z,58.70
2019-05-19T17:21:25.324Z,58.70
2019-05-19T17:26:30.203Z,58.70
2019-05-19T17:31:35.263Z,58.80
2019-05-19T17:36:40.318Z,59.20
2019-05-19T17:41:45.338Z,58.80
2019-05-19T17:46:50.558Z,58.80
2019-05-19T17:51:55.652Z,58.80
2019-05-19T17:57:01.311Z,58.70
2019-05-19T18:02:06.404Z,58.50
2019-05-19T18:07:11.720Z,58.80
2019-05-19T18:12:16.748Z,59.00
2019-05-19T18:17:21.788Z,59.20
2019-05-19T18:22:26.783Z,59.30
2019-05-19T18:27:31.627Z,59.60
2019-05-19T18:32:37.061Z,59.80
2019-05-19T18:37:41.889Z,60.10
2019-05-19T18:42:46.880Z,60.10
2019-05-19T18:47:51.985Z,60.10
2019-05-19T18:52:56.993Z,60.20
2019-05-19T18:58:02.001Z,60.50
2019-05-19T19:03:07.546Z,60.60
2019-05-19T19:08:12.543Z,60.50
2019-05-19T19:13:17.521Z,60.40
2019-05-19T19:18:23.396Z,60.40
2019-05-19T19:23:29.298Z,60.30
2019-05-19T19:28:34.402Z,59.90
2019-05-19T19:33:39.467Z,59.70
2019-05-19T19:38:44.490Z,59.80
2019-05-19T19:43:49.324Z,59.40
2019-05-19T19:48:54.235Z,59.30
2019-05-19T19:53:59.090Z,59.30
2019-05-19T19:59:04.013Z,59.50
2019-05-19T20:04:08.926Z,59.80
2019-05-19T20:09:14.740Z,58.60
2019-05-19T20:14:19.624Z,58.10
2019-05-19T20:19:24.658Z,57.90
2019-05-19T20:24:29.511Z,57.90
2019-05-19T20:29:34.433Z,57.80
2019-05-19T20:34:39.328Z,57.70
2019-05-19T20:39:45.238Z,57.80
2019-05-19T20:44:50.365Z,57.80
2019-05-19T20:49:55.501Z,57.70
2019-05-19T20:55:00.397Z,57.70
2019-05-19T21:00:09.265Z,57.70
2019-05-19T21:05:14.729Z,57.80
2019-05-19T21:10:20.821Z,57.70
2019-05-19T21:15:25.815Z,57.60
2019-05-19T21:20:30.653Z,57.60
2019-05-19T21:25:36.160Z,57.50
2019-05-19T21:30:41.034Z,57.60
2019-05-19T21:35:45.946Z,57.60
2019-05-19T21:40:50.797Z,57.80
2019-05-19T21:45:55.625Z,57.60
2019-05-19T21:51:00.283Z,57.60
2019-05-19T21:56:05.256Z,57.70
2019-05-19T22:01:22.318Z,57.60
2019-05-19T22:06:17.848Z,57.60
2019-05-19T22:11:22.810Z,57.60
2019-05-19T22:16:27.447Z,57.60
2019-05-19T22:21:32.631Z,57.70
2019-05-19T22:26:37.839Z,57.60
2019-05-19T22:31:42.603Z,57.70
2019-05-19T22:36:47.977Z,57.70
2019-05-19T22:41:52.882Z,57.70
2019-05-19T22:46:57.714Z,57.60
2019-05-19T22:52:03.349Z,57.60
2019-05-19T22:57:08.249Z,57.60
2019-05-19T23:02:13.231Z,57.60
2019-05-19T23:07:18.052Z,57.50
2019-05-19T23:12:23.141Z,57.50
2019-05-19T23:17:28.043Z,57.50
2019-05-19T23:22:32.776Z,57.50
2019-05-19T23:27:37.673Z,57.50
2019-05-19T23:32:42.598Z,57.50
2019-05-19T23:37:47.426Z,57.40
2019-05-19T23:42:52.262Z,57.40
2019-05-19T23:47:59.863Z,57.40
2019-05-19T23:53:04.691Z,57.40
2019-05-19T23:58:09.615Z,57.50
